sensor_id;sensor_type;location;lat;lon;timestamp;pressure;altitude;pressure_sealevel;temperature;humidity
13594;BME280;6449;47.666;9.160;2023-05-19T00:02:40;97313.69;;;12.68;100.00
13594;BME280;6449;47.666;9.160;2023-05-19T00:07:37;97309.84;;;12.61;100.00
13594;BME280;6449;47.666;9.160;2023-05-19T00:12:33;97308.16;;;12.71;100.00
13594;BME280;6449;47.666;9.160;2023-05-19T00:17:28;97297.03;;;12.56;100.00
13594;BME280;6449;47.666;9.160;2023-05-19T00:22:21;97302.19;;;12.57;100.00
13594;BME280;6449;47.666;9.160;2023-05-19T00:27:15;97299.66;;;12.67;100.00
13594;BME280;6449;47.666;9.160;2023-05-19T00:32:09;97303.63;;;12.50;100.00
13594;BME280;6449;47.666;9.160;2023-05-19T00:37:03;97295.84;;;12.49;100.00
13594;BME280;6449;47.666;9.160;2023-05-19T00:41:56;97289.13;;;12.45;100.00
13594;BME280;6449;47.666;9.160;2023-05-19T00:46:50;97292.38;;;12.37;100.00
13594;BME280;6449;47.666;9.160;2023-05-19T00:51:45;97287.13;;;12.37;100.00
13594;BME280;6449;47.666;9.160;2023-05-19T00:56:39;97291.91;;;12.43;100.00
13594;BME280;6449;47.666;9.160;2023-05-19T01:01:33;97294.75;;;12.29;100.00
13594;BME280;6449;47.666;9.160;2023-05-19T01:06:27;97283.66;;;12.25;100.00
13594;BME280;6449;47.666;9.160;2023-05-19T01:11:22;97284.47;;;12.15;100.00
13594;BME280;6449;47.666;9.160;2023-05-19T01:16:23;97287.31;;;12.23;100.00
13594;BME280;6449;47.666;9.160;2023-05-19T01:21:37;97279.22;;;12.26;100.00
13594;BME280;6449;47.666;9.160;2023-05-19T01:27:00;97288.44;;;12.31;100.00
13594;BME280;6449;47.666;9.160;2023-05-19T01:32:05;97292.38;;;12.26;100.00
13594;BME280;6449;47.666;9.160;2023-05-19T01:37:00;97292.91;;;12.07;100.00
13594;BME280;6449;47.666;9.160;2023-05-19T01:41:56;97294.69;;;12.06;100.00
13594;BME280;6449;47.666;9.160;2023-05-19T01:46:50;97286.34;;;12.13;100.00
13594;BME280;6449;47.666;9.160;2023-05-19T01:51:45;97286.28;;;12.25;100.00
13594;BME280;6449;47.666;9.160;2023-05-19T01:56:51;97290.22;;;12.20;100.00
13594;BME280;6449;47.666;9.160;2023-05-19T02:01:52;97286.31;;;12.01;100.00
13594;BME280;6449;47.666;9.160;2023-05-19T02:06:56;97291.88;;;12.21;100.00
13594;BME280;6449;47.666;9.160;2023-05-19T02:11:57;97282.88;;;12.12;100.00
13594;BME280;6449;47.666;9.160;2023-05-19T02:16:54;97287.16;;;12.02;100.00
13594;BME280;6449;47.666;9.160;2023-05-19T02:21:50;97286.19;;;11.92;100.00
13594;BME280;6449;47.666;9.160;2023-05-19T02:26:44;97290.84;;;11.88;100.00
13594;BME280;6449;47.666;9.160;2023-05-19T02:31:37;97282.59;;;11.93;100.00
13594;BME280;6449;47.666;9.160;2023-05-19T02:36:33;97280.72;;;12.06;100.00
13594;BME280;6449;47.666;9.160;2023-05-19T02:41:29;97285.00;;;11.96;100.00
13594;BME280;6449;47.666;9.160;2023-05-19T02:46:22;97275.56;;;11.69;100.00
13594;BME280;6449;47.666;9.160;2023-05-19T02:51:16;97275.94;;;11.76;100.00
13594;BME280;6449;47.666;9.160;2023-05-19T02:56:09;97268.53;;;11.94;100.00
13594;BME280;6449;47.666;9.160;2023-05-19T03:01:04;97264.38;;;11.78;100.00
13594;BME280;6449;47.666;9.160;2023-05-19T03:05:58;97264.56;;;11.88;100.00
13594;BME280;6449;47.666;9.160;2023-05-19T03:10:52;97266.56;;;11.61;100.00
13594;BME280;6449;47.666;9.160;2023-05-19T03:15:46;97271.31;;;11.55;100.00
13594;BME280;6449;47.666;9.160;2023-05-19T03:20:43;97270.31;;;11.69;100.00
13594;BME280;6449;47.666;9.160;2023-05-19T03:25:36;97274.19;;;11.52;100.00
13594;BME280;6449;47.666;9.160;2023-05-19T03:30:30;97271.59;;;11.64;100.00
13594;BME280;6449;47.666;9.160;2023-05-19T03:35:23;97272.41;;;11.53;100.00
13594;BME280;6449;47.666;9.160;2023-05-19T03:40:18;97282.72;;;11.67;100.00
13594;BME280;6449;47.666;9.160;2023-05-19T03:45:12;97282.56;;;11.58;100.00
13594;BME280;6449;47.666;9.160;2023-05-19T03:50:06;97280.16;;;11.54;100.00
13594;BME280;6449;47.666;9.160;2023-05-19T03:55:00;97280.09;;;11.43;100.00
13594;BME280;6449;47.666;9.160;2023-05-19T03:59:55;97277.59;;;11.42;100.00
13594;BME280;6449;47.666;9.160;2023-05-19T04:04:49;97283.13;;;11.50;100.00
13594;BME280;6449;47.666;9.160;2023-05-19T04:09:42;97281.41;;;11.38;100.00
13594;BME280;6449;47.666;9.160;2023-05-19T04:14:36;97281.34;;;11.50;100.00
13594;BME280;6449;47.666;9.160;2023-05-19T04:19:30;97280.59;;;11.48;100.00
13594;BME280;6449;47.666;9.160;2023-05-19T04:24:24;97279.00;;;11.59;100.00
13594;BME280;6449;47.666;9.160;2023-05-19T04:29:17;97283.06;;;11.63;100.00
13594;BME280;6449;47.666;9.160;2023-05-19T04:34:11;97283.56;;;11.68;100.00
13594;BME280;6449;47.666;9.160;2023-05-19T04:39:06;97288.69;;;11.69;100.00
13594;BME280;6449;47.666;9.160;2023-05-19T04:44:03;97292.06;;;11.47;100.00
13594;BME280;6449;47.666;9.160;2023-05-19T04:48:56;97296.59;;;11.45;100.00
13594;BME280;6449;47.666;9.160;2023-05-19T04:53:52;97296.66;;;11.57;100.00
13594;BME280;6449;47.666;9.160;2023-05-19T04:58:47;97299.81;;;11.49;100.00
13594;BME280;6449;47.666;9.160;2023-05-19T05:03:40;97300.06;;;11.46;100.00
13594;BME280;6449;47.666;9.160;2023-05-19T05:08:34;97296.41;;;11.60;100.00
13594;BME280;6449;47.666;9.160;2023-05-19T05:13:31;97293.81;;;11.71;100.00
13594;BME280;6449;47.666;9.160;2023-05-19T05:18:27;97300.03;;;11.70;100.00
13594;BME280;6449;47.666;9.160;2023-05-19T05:23:21;97298.22;;;11.83;100.00
13594;BME280;6449;47.666;9.160;2023-05-19T05:28:15;97305.53;;;11.67;100.00
13594;BME280;6449;47.666;9.160;2023-05-19T05:33:08;97303.84;;;11.90;100.00
13594;BME280;6449;47.666;9.160;2023-05-19T05:38:04;97301.84;;;11.93;100.00
13594;BME280;6449;47.666;9.160;2023-05-19T05:42:57;97305.25;;;11.59;100.00
13594;BME280;6449;47.666;9.160;2023-05-19T05:47:51;97298.53;;;11.78;100.00
13594;BME280;6449;47.666;9.160;2023-05-19T05:52:46;97300.50;;;11.64;100.00
13594;BME280;6449;47.666;9.160;2023-05-19T05:57:41;97306.47;;;11.66;100.00
13594;BME280;6449;47.666;9.160;2023-05-19T06:02:35;97308.88;;;11.69;100.00
13594;BME280;6449;47.666;9.160;2023-05-19T06:07:28;97310.38;;;11.60;100.00
13594;BME280;6449;47.666;9.160;2023-05-19T06:12:22;97312.91;;;11.62;100.00
13594;BME280;6449;47.666;9.160;2023-05-19T06:17:18;97310.78;;;11.67;100.00
13594;BME280;6449;47.666;9.160;2023-05-19T06:22:12;97307.44;;;11.89;100.00
13594;BME280;6449;47.666;9.160;2023-05-19T06:27:05;97315.56;;;11.97;100.00
13594;BME280;6449;47.666;9.160;2023-05-19T06:31:59;97313.66;;;11.75;100.00
13594;BME280;6449;47.666;9.160;2023-05-19T06:36:53;97313.78;;;11.97;100.00
13594;BME280;6449;47.666;9.160;2023-05-19T06:41:47;97312.38;;;12.04;100.00
13594;BME280;6449;47.666;9.160;2023-05-19T06:46:40;97307.66;;;12.21;100.00
13594;BME280;6449;47.666;9.160;2023-05-19T06:51:35;97303.28;;;12.09;100.00
13594;BME280;6449;47.666;9.160;2023-05-19T06:56:30;97314.69;;;12.09;100.00
13594;BME280;6449;47.666;9.160;2023-05-19T07:01:23;97315.03;;;12.16;100.00
13594;BME280;6449;47.666;9.160;2023-05-19T07:06:19;97309.78;;;12.16;100.00
13594;BME280;6449;47.666;9.160;2023-05-19T07:11:12;97316.03;;;12.26;100.00
13594;BME280;6449;47.666;9.160;2023-05-19T07:16:07;97308.38;;;12.34;100.00
13594;BME280;6449;47.666;9.160;2023-05-19T07:21:01;97315.63;;;12.19;100.00
13594;BME280;6449;47.666;9.160;2023-05-19T07:25:54;97319.47;;;12.26;100.00
13594;BME280;6449;47.666;9.160;2023-05-19T07:30:48;97310.50;;;12.29;100.00
13594;BME280;6449;47.666;9.160;2023-05-19T07:35:43;97311.28;;;12.42;100.00
13594;BME280;6449;47.666;9.160;2023-05-19T07:40:37;97303.72;;;12.38;100.00
13594;BME280;6449;47.666;9.160;2023-05-19T07:45:30;97302.59;;;12.18;100.00
13594;BME280;6449;47.666;9.160;2023-05-19T07:50:24;97311.28;;;12.42;100.00
13594;BME280;6449;47.666;9.160;2023-05-19T07:55:19;97296.06;;;12.46;100.00
13594;BME280;6449;47.666;9.160;2023-05-19T08:00:15;97301.38;;;12.57;100.00
13594;BME280;6449;47.666;9.160;2023-05-19T08:05:09;97300.06;;;12.74;100.00
13594;BME280;6449;47.666;9.160;2023-05-19T08:10:03;97290.72;;;12.47;100.00
13594;BME280;6449;47.666;9.160;2023-05-19T08:14:58;97300.88;;;12.85;100.00
13594;BME280;6449;47.666;9.160;2023-05-19T08:19:52;97299.22;;;12.73;100.00
13594;BME280;6449;47.666;9.160;2023-05-19T08:24:51;97293.56;;;13.11;100.00
13594;BME280;6449;47.666;9.160;2023-05-19T08:29:45;97281.84;;;13.27;100.00
13594;BME280;6449;47.666;9.160;2023-05-19T08:34:39;97285.84;;;13.42;100.00
13594;BME280;6449;47.666;9.160;2023-05-19T08:39:33;97278.56;;;13.34;100.00
13594;BME280;6449;47.666;9.160;2023-05-19T08:44:26;97280.13;;;13.26;100.00
13594;BME280;6449;47.666;9.160;2023-05-19T08:49:26;97281.94;;;13.14;100.00
13594;BME280;6449;47.666;9.160;2023-05-19T08:54:29;97266.28;;;13.24;100.00
13594;BME280;6449;47.666;9.160;2023-05-19T08:59:26;97271.66;;;13.11;100.00
13594;BME280;6449;47.666;9.160;2023-05-19T09:04:19;97262.34;;;13.50;100.00
13594;BME280;6449;47.666;9.160;2023-05-19T09:09:13;97259.44;;;13.65;100.00
13594;BME280;6449;47.666;9.160;2023-05-19T09:14:08;97260.66;;;13.81;100.00
13594;BME280;6449;47.666;9.160;2023-05-19T09:19:02;97263.69;;;13.77;100.00
13594;BME280;6449;47.666;9.160;2023-05-19T09:23:55;97256.03;;;13.95;100.00
13594;BME280;6449;47.666;9.160;2023-05-19T09:28:50;97255.50;;;14.01;100.00
13594;BME280;6449;47.666;9.160;2023-05-19T09:33:44;97252.38;;;13.86;100.00
13594;BME280;6449;47.666;9.160;2023-05-19T09:38:38;97253.53;;;14.14;100.00
13594;BME280;6449;47.666;9.160;2023-05-19T09:43:34;97247.00;;;14.39;100.00
13594;BME280;6449;47.666;9.160;2023-05-19T09:48:27;97247.13;;;14.37;100.00
13594;BME280;6449;47.666;9.160;2023-05-19T09:53:23;97240.13;;;14.48;100.00
13594;BME280;6449;47.666;9.160;2023-05-19T09:58:18;97240.78;;;14.40;100.00
13594;BME280;6449;47.666;9.160;2023-05-19T10:03:12;97234.59;;;14.51;100.00
13594;BME280;6449;47.666;9.160;2023-05-19T10:08:06;97232.34;;;14.77;100.00
13594;BME280;6449;47.666;9.160;2023-05-19T10:13:03;97233.44;;;14.74;100.00
13594;BME280;6449;47.666;9.160;2023-05-19T10:17:57;97224.53;;;14.75;100.00
13594;BME280;6449;47.666;9.160;2023-05-19T10:22:52;97233.66;;;14.61;100.00
13594;BME280;6449;47.666;9.160;2023-05-19T10:27:52;97224.13;;;14.70;100.00
13594;BME280;6449;47.666;9.160;2023-05-19T10:32:48;97221.53;;;14.89;100.00
13594;BME280;6449;47.666;9.160;2023-05-19T10:37:52;97222.44;;;15.48;100.00
13594;BME280;6449;47.666;9.160;2023-05-19T10:43:03;97216.06;;;15.80;100.00
13594;BME280;6449;47.666;9.160;2023-05-19T10:47:59;97215.50;;;15.47;100.00
13594;BME280;6449;47.666;9.160;2023-05-19T10:52:55;97222.16;;;15.32;100.00
13594;BME280;6449;47.666;9.160;2023-05-19T10:57:53;97223.81;;;15.33;100.00
13594;BME280;6449;47.666;9.160;2023-05-19T11:02:47;97209.94;;;15.69;100.00
13594;BME280;6449;47.666;9.160;2023-05-19T11:07:55;97207.72;;;15.84;100.00
13594;BME280;6449;47.666;9.160;2023-05-19T11:12:56;97198.53;;;15.69;100.00
13594;BME280;6449;47.666;9.160;2023-05-19T11:17:51;97198.22;;;16.01;100.00
13594;BME280;6449;47.666;9.160;2023-05-19T11:23:03;97201.16;;;15.88;100.00
13594;BME280;6449;47.666;9.160;2023-05-19T11:27:59;97202.84;;;15.80;100.00
13594;BME280;6449;47.666;9.160;2023-05-19T11:32:53;97202.03;;;15.50;100.00
13594;BME280;6449;47.666;9.160;2023-05-19T11:37:48;97198.22;;;15.33;100.00
13594;BME280;6449;47.666;9.160;2023-05-19T11:42:44;97209.53;;;15.64;100.00
13594;BME280;6449;47.666;9.160;2023-05-19T11:47:37;97193.53;;;15.56;100.00
13594;BME280;6449;47.666;9.160;2023-05-19T11:52:51;97193.78;;;15.53;100.00
13594;BME280;6449;47.666;9.160;2023-05-19T11:57:59;97190.06;;;15.65;100.00
13594;BME280;6449;47.666;9.160;2023-05-19T12:02:56;97187.19;;;16.15;100.00
13594;BME280;6449;47.666;9.160;2023-05-19T12:07:51;97179.63;;;16.30;100.00
13594;BME280;6449;47.666;9.160;2023-05-19T12:12:45;97186.44;;;16.33;100.00
13594;BME280;6449;47.666;9.160;2023-05-19T12:17:40;97187.16;;;16.25;100.00
13594;BME280;6449;47.666;9.160;2023-05-19T12:22:33;97196.41;;;16.48;100.00
13594;BME280;6449;47.666;9.160;2023-05-19T12:27:27;97193.69;;;16.31;100.00
13594;BME280;6449;47.666;9.160;2023-05-19T12:32:22;97191.72;;;16.33;100.00
13594;BME280;6449;47.666;9.160;2023-05-19T12:37:18;97193.16;;;16.17;100.00
13594;BME280;6449;47.666;9.160;2023-05-19T12:42:12;97185.22;;;16.17;100.00
13594;BME280;6449;47.666;9.160;2023-05-19T12:47:05;97181.88;;;16.25;100.00
13594;BME280;6449;47.666;9.160;2023-05-19T12:52:01;97172.44;;;16.40;100.00
13594;BME280;6449;47.666;9.160;2023-05-19T12:57:04;97174.66;;;16.45;100.00
13594;BME280;6449;47.666;9.160;2023-05-19T13:01:58;97171.59;;;16.49;100.00
13594;BME280;6449;47.666;9.160;2023-05-19T13:06:53;97170.38;;;16.44;100.00
13594;BME280;6449;47.666;9.160;2023-05-19T13:11:47;97161.44;;;16.45;100.00
13594;BME280;6449;47.666;9.160;2023-05-19T13:16:44;97160.75;;;16.43;100.00
13594;BME280;6449;47.666;9.160;2023-05-19T13:21:38;97156.97;;;16.45;100.00
13594;BME280;6449;47.666;9.160;2023-05-19T13:26:32;97151.75;;;16.36;100.00
13594;BME280;6449;47.666;9.160;2023-05-19T13:31:25;97160.53;;;16.36;100.00
13594;BME280;6449;47.666;9.160;2023-05-19T13:36:20;97161.59;;;16.06;100.00
13594;BME280;6449;47.666;9.160;2023-05-19T13:41:14;97168.19;;;15.83;100.00
13594;BME280;6449;47.666;9.160;2023-05-19T13:46:08;97172.53;;;15.64;100.00
13594;BME280;6449;47.666;9.160;2023-05-19T13:51:02;97176.41;;;15.70;100.00
13594;BME280;6449;47.666;9.160;2023-05-19T13:55:56;97174.16;;;15.85;100.00
13594;BME280;6449;47.666;9.160;2023-05-19T14:00:50;97170.88;;;15.63;100.00
13594;BME280;6449;47.666;9.160;2023-05-19T14:05:47;97176.16;;;15.63;100.00
13594;BME280;6449;47.666;9.160;2023-05-19T14:10:40;97174.03;;;15.57;100.00
13594;BME280;6449;47.666;9.160;2023-05-19T14:15:35;97178.50;;;15.47;100.00
13594;BME280;6449;47.666;9.160;2023-05-19T14:20:30;97182.13;;;15.36;100.00
13594;BME280;6449;47.666;9.160;2023-05-19T14:25:23;97175.72;;;15.58;100.00
13594;BME280;6449;47.666;9.160;2023-05-19T14:30:17;97171.97;;;15.51;100.00
13594;BME280;6449;47.666;9.160;2023-05-19T14:35:12;97182.97;;;15.56;100.00
13594;BME280;6449;47.666;9.160;2023-05-19T14:40:07;97173.63;;;15.52;100.00
13594;BME280;6449;47.666;9.160;2023-05-19T14:45:00;97177.66;;;15.56;100.00
13594;BME280;6449;47.666;9.160;2023-05-19T14:49:53;97173.34;;;15.55;100.00
13594;BME280;6449;47.666;9.160;2023-05-19T14:54:48;97167.97;;;15.66;100.00
13594;BME280;6449;47.666;9.160;2023-05-19T14:59:42;97162.63;;;15.76;100.00
13594;BME280;6449;47.666;9.160;2023-05-19T15:04:35;97165.56;;;15.83;100.00
13594;BME280;6449;47.666;9.160;2023-05-19T15:09:28;97168.50;;;15.70;100.00
13594;BME280;6449;47.666;9.160;2023-05-19T15:14:23;97159.88;;;15.78;100.00
13594;BME280;6449;47.666;9.160;2023-05-19T15:19:18;97162.66;;;15.57;100.00
13594;BME280;6449;47.666;9.160;2023-05-19T15:24:12;97161.13;;;15.64;100.00
13594;BME280;6449;47.666;9.160;2023-05-19T15:29:05;97161.81;;;15.56;100.00
13594;BME280;6449;47.666;9.160;2023-05-19T15:34:00;97159.16;;;15.56;100.00
13594;BME280;6449;47.666;9.160;2023-05-19T15:38:53;97159.84;;;15.49;100.00
13594;BME280;6449;47.666;9.160;2023-05-19T15:43:47;97162.50;;;15.39;100.00
13594;BME280;6449;47.666;9.160;2023-05-19T15:48:40;97152.06;;;15.28;100.00
13594;BME280;6449;47.666;9.160;2023-05-19T15:53:35;97158.22;;;15.18;100.00
13594;BME280;6449;47.666;9.160;2023-05-19T15:58:28;97163.63;;;15.27;100.00
13594;BME280;6449;47.666;9.160;2023-05-19T16:03:22;97152.66;;;15.31;100.00
13594;BME280;6449;47.666;9.160;2023-05-19T16:08:15;97160.41;;;15.23;100.00
13594;BME280;6449;47.666;9.160;2023-05-19T16:13:10;97148.19;;;15.12;100.00
13594;BME280;6449;47.666;9.160;2023-05-19T16:18:03;97141.38;;;15.00;100.00
13594;BME280;6449;47.666;9.160;2023-05-19T16:22:57;97143.03;;;15.01;100.00
13594;BME280;6449;47.666;9.160;2023-05-19T16:27:51;97143.03;;;15.11;100.00
13594;BME280;6449;47.666;9.160;2023-05-19T16:32:45;97143.19;;;15.09;100.00
13594;BME280;6449;47.666;9.160;2023-05-19T16:37:39;97143.72;;;14.93;100.00
13594;BME280;6449;47.666;9.160;2023-05-19T16:42:32;97150.69;;;14.94;100.00
13594;BME280;6449;47.666;9.160;2023-05-19T16:47:26;97153.59;;;15.11;100.00
13594;BME280;6449;47.666;9.160;2023-05-19T16:52:20;97150.53;;;14.96;100.00
13594;BME280;6449;47.666;9.160;2023-05-19T16:57:14;97147.47;;;14.91;100.00
13594;BME280;6449;47.666;9.160;2023-05-19T17:02:07;97137.31;;;14.96;100.00
13594;BME280;6449;47.666;9.160;2023-05-19T17:07:01;97144.94;;;14.80;100.00
13594;BME280;6449;47.666;9.160;2023-05-19T17:11:56;97150.41;;;14.88;100.00
13594;BME280;6449;47.666;9.160;2023-05-19T17:16:49;97146.91;;;14.78;100.00
13594;BME280;6449;47.666;9.160;2023-05-19T17:21:44;97142.31;;;14.80;100.00
13594;BME280;6449;47.666;9.160;2023-05-19T17:26:37;97141.19;;;14.73;100.00
13594;BME280;6449;47.666;9.160;2023-05-19T17:31:32;97146.47;;;14.73;100.00
13594;BME280;6449;47.666;9.160;2023-05-19T17:36:25;97148.69;;;14.67;100.00
13594;BME280;6449;47.666;9.160;2023-05-19T17:41:18;97154.53;;;14.71;100.00
13594;BME280;6449;47.666;9.160;2023-05-19T17:46:12;97149.53;;;14.78;100.00
13594;BME280;6449;47.666;9.160;2023-05-19T17:51:07;97147.44;;;14.62;100.00
13594;BME280;6449;47.666;9.160;2023-05-19T17:56:02;97147.91;;;14.46;100.00
13594;BME280;6449;47.666;9.160;2023-05-19T18:00:58;97147.69;;;14.49;100.00
13594;BME280;6449;47.666;9.160;2023-05-19T18:05:52;97143.47;;;14.47;100.00
13594;BME280;6449;47.666;9.160;2023-05-19T18:10:47;97160.75;;;14.60;100.00
13594;BME280;6449;47.666;9.160;2023-05-19T18:15:42;97153.94;;;14.58;100.00
13594;BME280;6449;47.666;9.160;2023-05-19T18:20:38;97150.03;;;14.52;100.00
13594;BME280;6449;47.666;9.160;2023-05-19T18:25:35;97151.53;;;14.45;100.00
13594;BME280;6449;47.666;9.160;2023-05-19T18:30:32;97155.59;;;14.49;100.00
13594;BME280;6449;47.666;9.160;2023-05-19T18:35:26;97156.78;;;14.45;100.00
13594;BME280;6449;47.666;9.160;2023-05-19T18:40:19;97164.97;;;14.42;100.00
13594;BME280;6449;47.666;9.160;2023-05-19T18:45:13;97160.88;;;14.49;100.00
13594;BME280;6449;47.666;9.160;2023-05-19T18:50:09;97159.13;;;14.38;100.00
13594;BME280;6449;47.666;9.160;2023-05-19T18:55:02;97156.47;;;14.29;100.00
13594;BME280;6449;47.666;9.160;2023-05-19T18:59:56;97146.34;;;14.34;100.00
13594;BME280;6449;47.666;9.160;2023-05-19T19:04:49;97157.06;;;14.42;100.00
13594;BME280;6449;47.666;9.160;2023-05-19T19:09:44;97154.75;;;14.18;100.00
13594;BME280;6449;47.666;9.160;2023-05-19T19:14:37;97156.03;;;14.24;100.00
13594;BME280;6449;47.666;9.160;2023-05-19T19:19:31;97155.72;;;14.17;100.00
13594;BME280;6449;47.666;9.160;2023-05-19T19:24:24;97163.53;;;14.28;100.00
13594;BME280;6449;47.666;9.160;2023-05-19T19:29:20;97158.56;;;14.04;100.00
13594;BME280;6449;47.666;9.160;2023-05-19T19:34:14;97166.31;;;13.96;100.00
13594;BME280;6449;47.666;9.160;2023-05-19T19:39:10;97173.31;;;13.86;100.00
13594;BME280;6449;47.666;9.160;2023-05-19T19:44:04;97164.59;;;13.95;100.00
13594;BME280;6449;47.666;9.160;2023-05-19T19:48:59;97167.97;;;13.97;100.00
13594;BME280;6449;47.666;9.160;2023-05-19T19:53:53;97169.63;;;13.98;100.00
13594;BME280;6449;47.666;9.160;2023-05-19T19:58:46;97173.19;;;13.87;100.00
13594;BME280;6449;47.666;9.160;2023-05-19T20:03:40;97177.16;;;13.82;100.00
13594;BME280;6449;47.666;9.160;2023-05-19T20:08:34;97168.59;;;13.89;100.00
13594;BME280;6449;47.666;9.160;2023-05-19T20:13:28;97167.41;;;13.73;100.00
13594;BME280;6449;47.666;9.160;2023-05-19T20:18:24;97171.53;;;13.66;100.00
13594;BME280;6449;47.666;9.160;2023-05-19T20:23:18;97159.94;;;13.78;100.00
13594;BME280;6449;47.666;9.160;2023-05-19T20:28:13;97144.41;;;13.75;100.00
13594;BME280;6449;47.666;9.160;2023-05-19T20:33:07;97153.00;;;13.77;100.00
13594;BME280;6449;47.666;9.160;2023-05-19T20:38:00;97130.97;;;13.57;100.00
13594;BME280;6449;47.666;9.160;2023-05-19T20:42:54;97141.84;;;13.63;100.00
13594;BME280;6449;47.666;9.160;2023-05-19T20:47:49;97131.41;;;13.62;100.00
13594;BME280;6449;47.666;9.160;2023-05-19T20:52:42;97128.78;;;13.62;100.00
13594;BME280;6449;47.666;9.160;2023-05-19T20:57:36;97129.63;;;13.62;100.00
13594;BME280;6449;47.666;9.160;2023-05-19T21:02:29;97128.41;;;13.67;100.00
13594;BME280;6449;47.666;9.160;2023-05-19T21:07:24;97124.25;;;13.64;100.00
13594;BME280;6449;47.666;9.160;2023-05-19T21:12:17;97121.63;;;13.74;100.00
13594;BME280;6449;47.666;9.160;2023-05-19T21:17:14;97121.78;;;13.72;100.00
13594;BME280;6449;47.666;9.160;2023-05-19T21:22:09;97118.31;;;13.72;100.00
13594;BME280;6449;47.666;9.160;2023-05-19T21:27:04;97120.63;;;13.65;100.00
13594;BME280;6449;47.666;9.160;2023-05-19T21:31:58;97116.34;;;13.64;100.00
13594;BME280;6449;47.666;9.160;2023-05-19T21:36:52;97115.09;;;13.68;100.00
13594;BME280;6449;47.666;9.160;2023-05-19T21:41:45;97117.00;;;13.87;100.00
13594;BME280;6449;47.666;9.160;2023-05-19T21:46:40;97106.56;;;13.76;100.00
13594;BME280;6449;47.666;9.160;2023-05-19T21:51:33;97092.22;;;13.69;100.00
13594;BME280;6449;47.666;9.160;2023-05-19T21:56:27;97082.53;;;13.69;100.00
13594;BME280;6449;47.666;9.160;2023-05-19T22:01:21;97080.66;;;13.60;100.00
13594;BME280;6449;47.666;9.160;2023-05-19T22:06:16;97080.84;;;13.68;100.00
13594;BME280;6449;47.666;9.160;2023-05-19T22:11:09;97070.09;;;13.81;100.00
13594;BME280;6449;47.666;9.160;2023-05-19T22:16:03;97070.63;;;13.75;100.00
13594;BME280;6449;47.666;9.160;2023-05-19T22:20:57;97060.34;;;13.72;100.00
13594;BME280;6449;47.666;9.160;2023-05-19T22:25:51;97059.81;;;13.78;100.00
13594;BME280;6449;47.666;9.160;2023-05-19T22:30:47;97055.75;;;13.74;100.00
13594;BME280;6449;47.666;9.160;2023-05-19T22:35:41;97061.91;;;13.84;100.00
13594;BME280;6449;47.666;9.160;2023-05-19T22:40:34;97047.06;;;13.83;100.00
13594;BME280;6449;47.666;9.160;2023-05-19T22:45:30;97053.47;;;13.90;100.00
13594;BME280;6449;47.666;9.160;2023-05-19T22:50:24;97045.56;;;13.80;100.00
13594;BME280;6449;47.666;9.160;2023-05-19T22:55:17;97053.41;;;13.71;100.00
13594;BME280;6449;47.666;9.160;2023-05-19T23:00:12;97052.78;;;13.57;100.00
13594;BME280;6449;47.666;9.160;2023-05-19T23:05:08;97052.75;;;13.48;100.00
13594;BME280;6449;47.666;9.160;2023-05-19T23:10:01;97046.06;;;13.44;100.00
13594;BME280;6449;47.666;9.160;2023-05-19T23:14:56;97034.16;;;13.49;100.00
13594;BME280;6449;47.666;9.160;2023-05-19T23:19:50;97026.81;;;13.43;100.00
13594;BME280;6449;47.666;9.160;2023-05-19T23:24:44;97017.22;;;13.42;100.00
13594;BME280;6449;47.666;9.160;2023-05-19T23:29:38;97007.97;;;13.48;100.00
13594;BME280;6449;47.666;9.160;2023-05-19T23:34:31;97004.75;;;13.44;100.00
13594;BME280;6449;47.666;9.160;2023-05-19T23:39:25;96994.75;;;13.38;100.00
13594;BME280;6449;47.666;9.160;2023-05-19T23:44:19;96990.63;;;13.45;100.00
13594;BME280;6449;47.666;9.160;2023-05-19T23:49:13;96999.06;;;13.39;100.00
13594;BME280;6449;47.666;9.160;2023-05-19T23:54:06;96996.31;;;13.50;100.00
13594;BME280;6449;47.666;9.160;2023-05-19T23:58:59;96989.25;;;13.51;100.00
